sensor_id;sensor_type;location;lat;lon;timestamp;pressure;altitude;pressure_sealevel;temperature;humidity
59831;BME280;45711;50.108;13.712;2022-10-22T00:00:36;97626.97;;;7.99;98.81
59831;BME280;45711;50.108;13.712;2022-10-22T00:03:03;97633.91;;;8.00;99.13
59831;BME280;45711;50.108;13.712;2022-10-22T00:05:28;97639.25;;;7.90;98.51
59831;BME280;45711;50.108;13.712;2022-10-22T00:07:54;97641.38;;;7.93;99.56
59831;BME280;45711;50.108;13.712;2022-10-22T00:10:20;97642.44;;;7.81;99.64
59831;BME280;45711;50.108;13.712;2022-10-22T00:12:48;97645.91;;;7.72;99.58
59831;BME280;45711;50.108;13.712;2022-10-22T00:15:15;97654.19;;;7.75;99.92
59831;BME280;45711;50.108;13.712;2022-10-22T00:17:41;97649.91;;;7.79;99.91
59831;BME280;45711;50.108;13.712;2022-10-22T00:20:09;97632.06;;;7.60;100.00
59831;BME280;45711;50.108;13.712;2022-10-22T00:22:34;97637.38;;;7.60;100.00
59831;BME280;45711;50.108;13.712;2022-10-22T00:25:00;97641.63;;;7.50;99.57
59831;BME280;45711;50.108;13.712;2022-10-22T00:27:25;97637.63;;;7.48;99.95
59831;BME280;45711;50.108;13.712;2022-10-22T00:29:51;97648.31;;;7.68;100.00
59831;BME280;45711;50.108;13.712;2022-10-22T00:32:17;97649.63;;;7.66;99.56
59831;BME280;45711;50.108;13.712;2022-10-22T00:34:45;97652.31;;;7.76;98.35
59831;BME280;45711;50.108;13.712;2022-10-22T00:37:12;97638.19;;;7.75;98.35
59831;BME280;45711;50.108;13.712;2022-10-22T00:39:38;97635.78;;;7.69;98.57
59831;BME280;45711;50.108;13.712;2022-10-22T00:42:04;97634.72;;;7.65;98.57
59831;BME280;45711;50.108;13.712;2022-10-22T00:45:13;97634.97;;;7.73;98.48
59831;BME280;45711;50.108;13.712;2022-10-22T00:47:42;97630.97;;;7.66;99.41
59831;BME280;45711;50.108;13.712;2022-10-22T00:50:12;97628.88;;;7.63;100.00
59831;BME280;45711;50.108;13.712;2022-10-22T00:52:43;97632.06;;;7.60;100.00
59831;BME280;45711;50.108;13.712;2022-10-22T00:55:09;97631.81;;;7.66;99.75
59831;BME280;45711;50.108;13.712;2022-10-22T00:57:35;97629.91;;;7.62;99.74
59831;BME280;45711;50.108;13.712;2022-10-22T01:00:03;97614.47;;;7.69;99.51
59831;BME280;45711;50.108;13.712;2022-10-22T01:02:29;97608.06;;;7.70;99.79
59831;BME280;45711;50.108;13.712;2022-10-22T01:04:57;97603.81;;;7.64;100.00
59831;BME280;45711;50.108;13.712;2022-10-22T01:07:23;97601.13;;;7.79;100.00
59831;BME280;45711;50.108;13.712;2022-10-22T01:10:00;97601.94;;;7.74;99.75
59831;BME280;45711;50.108;13.712;2022-10-22T01:12:36;97590.75;;;7.77;100.00
59831;BME280;45711;50.108;13.712;2022-10-22T01:15:15;97600.34;;;7.73;99.68
59831;BME280;45711;50.108;13.712;2022-10-22T01:17:48;97594.75;;;7.70;99.74
59831;BME280;45711;50.108;13.712;2022-10-22T01:20:35;97592.91;;;7.80;99.09
59831;BME280;45711;50.108;13.712;2022-10-22T01:23:16;97597.16;;;7.76;99.35
59831;BME280;45711;50.108;13.712;2022-10-22T01:25:52;97593.97;;;7.79;99.33
59831;BME280;45711;50.108;13.712;2022-10-22T01:30:56;97595.81;;;7.94;98.83
59831;BME280;45711;50.108;13.712;2022-10-22T01:33:24;97586.78;;;7.85;99.45
59831;BME280;45711;50.108;13.712;2022-10-22T01:35:51;97587.03;;;7.94;98.19
59831;BME280;45711;50.108;13.712;2022-10-22T01:38:20;97588.34;;;7.96;98.34
59831;BME280;45711;50.108;13.712;2022-10-22T01:40:50;97582.50;;;7.89;98.17
59831;BME280;45711;50.108;13.712;2022-10-22T01:43:15;97578.22;;;7.83;98.63
59831;BME280;45711;50.108;13.712;2022-10-22T01:45:43;97584.91;;;7.80;99.57
59831;BME280;45711;50.108;13.712;2022-10-22T01:48:28;97592.38;;;7.89;99.79
59831;BME280;45711;50.108;13.712;2022-10-22T01:51:10;97593.44;;;7.93;100.00
59831;BME280;45711;50.108;13.712;2022-10-22T01:53:47;97590.22;;;7.86;100.00
59831;BME280;45711;50.108;13.712;2022-10-22T01:56:26;97574.22;;;7.91;100.00
59831;BME280;45711;50.108;13.712;2022-10-22T01:58:59;97574.75;;;7.98;99.39
59831;BME280;45711;50.108;13.712;2022-10-22T02:01:34;97571.84;;;7.89;99.99
59831;BME280;45711;50.108;13.712;2022-10-22T02:04:09;97575.84;;;7.97;99.97
59831;BME280;45711;50.108;13.712;2022-10-22T02:06:38;97588.59;;;8.00;98.53
59831;BME280;45711;50.108;13.712;2022-10-22T02:09:06;97577.97;;;7.95;98.78
59831;BME280;45711;50.108;13.712;2022-10-22T02:11:34;97585.44;;;7.82;99.81
59831;BME280;45711;50.108;13.712;2022-10-22T02:14:02;97583.28;;;7.74;100.00
59831;BME280;45711;50.108;13.712;2022-10-22T02:16:32;97569.72;;;7.86;99.18
59831;BME280;45711;50.108;13.712;2022-10-22T02:19:03;97580.13;;;7.72;99.79
59831;BME280;45711;50.108;13.712;2022-10-22T02:21:31;97584.13;;;7.75;99.92
59831;BME280;45711;50.108;13.712;2022-10-22T02:23:57;97575.84;;;7.81;99.61
59831;BME280;45711;50.108;13.712;2022-10-22T02:26:29;97586.25;;;7.88;99.24
59831;BME280;45711;50.108;13.712;2022-10-22T02:29:00;97580.38;;;7.76;99.33
59831;BME280;45711;50.108;13.712;2022-10-22T02:31:29;97574.81;;;7.62;99.50
59831;BME280;45711;50.108;13.712;2022-10-22T02:33:57;97572.16;;;7.62;100.00
59831;BME280;45711;50.108;13.712;2022-10-22T02:36:26;97572.66;;;7.69;99.98
59831;BME280;45711;50.108;13.712;2022-10-22T02:38:54;97575.59;;;7.68;99.91
59831;BME280;45711;50.108;13.712;2022-10-22T02:41:20;97579.34;;;7.67;99.80
59831;BME280;45711;50.108;13.712;2022-10-22T02:43:50;97594.25;;;7.63;100.00
59831;BME280;45711;50.108;13.712;2022-10-22T02:46:17;97588.91;;;7.78;99.88
59831;BME280;45711;50.108;13.712;2022-10-22T02:48:43;97599.81;;;7.81;99.29
59831;BME280;45711;50.108;13.712;2022-10-22T02:51:08;97606.75;;;7.67;98.71
59831;BME280;45711;50.108;13.712;2022-10-22T02:53:34;97602.75;;;7.70;99.20
59831;BME280;45711;50.108;13.712;2022-10-22T02:56:01;97607.03;;;7.71;99.21
59831;BME280;45711;50.108;13.712;2022-10-22T02:58:27;97606.75;;;7.67;99.60
59831;BME280;45711;50.108;13.712;2022-10-22T03:00:52;97618.22;;;7.68;99.78
59831;BME280;45711;50.108;13.712;2022-10-22T03:03:18;97627.25;;;7.72;99.69
59831;BME280;45711;50.108;13.712;2022-10-22T03:05:44;97630.19;;;7.70;98.97
59831;BME280;45711;50.108;13.712;2022-10-22T03:08:10;97620.59;;;7.74;98.67
59831;BME280;45711;50.108;13.712;2022-10-22T03:10:35;97605.44;;;7.75;99.05
59831;BME280;45711;50.108;13.712;2022-10-22T03:13:03;97592.88;;;8.06;99.35
59831;BME280;45711;50.108;13.712;2022-10-22T03:15:28;97599.81;;;7.76;98.66
59831;BME280;45711;50.108;13.712;2022-10-22T03:17:54;97608.88;;;7.70;99.93
59831;BME280;45711;50.108;13.712;2022-10-22T03:20:20;97608.63;;;7.77;100.00
59831;BME280;45711;50.108;13.712;2022-10-22T03:22:45;97606.19;;;7.91;99.77
59831;BME280;45711;50.108;13.712;2022-10-22T03:25:15;97620.59;;;7.95;98.54
59831;BME280;45711;50.108;13.712;2022-10-22T03:27:44;97616.88;;;7.86;99.05
59831;BME280;45711;50.108;13.712;2022-10-22T03:30:12;97608.88;;;7.86;99.50
59831;BME280;45711;50.108;13.712;2022-10-22T03:32:38;97604.88;;;7.88;99.18
59831;BME280;45711;50.108;13.712;2022-10-22T03:35:04;97608.59;;;7.87;99.08
59831;BME280;45711;50.108;13.712;2022-10-22T03:37:30;97608.34;;;7.73;100.00
59831;BME280;45711;50.108;13.712;2022-10-22T03:39:56;97612.06;;;7.72;100.00
59831;BME280;45711;50.108;13.712;2022-10-22T03:42:22;97611.03;;;7.84;100.00
59831;BME280;45711;50.108;13.712;2022-10-22T03:44:48;97627.53;;;7.86;100.00
59831;BME280;45711;50.108;13.712;2022-10-22T03:47:15;97639.78;;;7.87;100.00
59831;BME280;45711;50.108;13.712;2022-10-22T03:49:41;97650.69;;;7.90;99.58
59831;BME280;45711;50.108;13.712;2022-10-22T03:52:10;97645.13;;;7.71;99.91
59831;BME280;45711;50.108;13.712;2022-10-22T03:54:36;97634.97;;;7.68;100.00
59831;BME280;45711;50.108;13.712;2022-10-22T03:57:03;97629.41;;;7.75;100.00
59831;BME280;45711;50.108;13.712;2022-10-22T03:59:33;97637.38;;;7.80;100.00
59831;BME280;45711;50.108;13.712;2022-10-22T04:01:59;97644.56;;;7.74;100.00
59831;BME280;45711;50.108;13.712;2022-10-22T04:04:26;97651.75;;;7.69;100.00
59831;BME280;45711;50.108;13.712;2022-10-22T04:06:51;97652.31;;;7.71;100.00
59831;BME280;45711;50.108;13.712;2022-10-22T04:09:17;97647.25;;;7.79;100.00
59831;BME280;45711;50.108;13.712;2022-10-22T04:11:43;97647.50;;;7.83;100.00
59831;BME280;45711;50.108;13.712;2022-10-22T04:14:09;97644.84;;;7.88;99.70
59831;BME280;45711;50.108;13.712;2022-10-22T04:16:37;97639.53;;;7.88;100.00
59831;BME280;45711;50.108;13.712;2022-10-22T04:19:03;97638.19;;;7.86;98.89
59831;BME280;45711;50.108;13.712;2022-10-22T04:21:30;97636.03;;;7.88;99.33
59831;BME280;45711;50.108;13.712;2022-10-22T04:23:56;97638.72;;;7.93;99.01
59831;BME280;45711;50.108;13.712;2022-10-22T04:26:22;97634.97;;;7.99;99.15
59831;BME280;45711;50.108;13.712;2022-10-22T04:28:49;97646.16;;;7.96;99.06
59831;BME280;45711;50.108;13.712;2022-10-22T04:31:17;97646.72;;;7.98;100.00
59831;BME280;45711;50.108;13.712;2022-10-22T04:33:43;97644.81;;;8.03;99.86
59831;BME280;45711;50.108;13.712;2022-10-22T04:36:11;97632.03;;;8.00;99.22
59831;BME280;45711;50.108;13.712;2022-10-22T04:38:39;97629.91;;;7.92;99.00
59831;BME280;45711;50.108;13.712;2022-10-22T04:41:10;97626.44;;;7.92;99.82
59831;BME280;45711;50.108;13.712;2022-10-22T04:43:36;97626.47;;;7.81;99.14
59831;BME280;45711;50.108;13.712;2022-10-22T04:46:01;97629.66;;;7.89;99.57
59831;BME280;45711;50.108;13.712;2022-10-22T04:48:27;97624.34;;;7.89;100.00
59831;BME280;45711;50.108;13.712;2022-10-22T04:50:52;97628.06;;;7.93;99.44
59831;BME280;45711;50.108;13.712;2022-10-22T04:53:18;97632.59;;;7.97;99.40
59831;BME280;45711;50.108;13.712;2022-10-22T04:55:45;97635.78;;;7.94;99.49
59831;BME280;45711;50.108;13.712;2022-10-22T04:58:11;97638.41;;;8.04;99.73
59831;BME280;45711;50.108;13.712;2022-10-22T05:00:36;97634.19;;;7.98;100.00
59831;BME280;45711;50.108;13.712;2022-10-22T05:03:02;97630.97;;;8.06;100.00
59831;BME280;45711;50.108;13.712;2022-10-22T05:05:27;97651.50;;;8.11;100.00
59831;BME280;45711;50.108;13.712;2022-10-22T05:07:53;97651.22;;;8.02;100.00
59831;BME280;45711;50.108;13.712;2022-10-22T05:10:19;97647.50;;;7.98;100.00
59831;BME280;45711;50.108;13.712;2022-10-22T05:12:46;97645.63;;;8.04;100.00
59831;BME280;45711;50.108;13.712;2022-10-22T05:15:11;97655.75;;;7.92;100.00
59831;BME280;45711;50.108;13.712;2022-10-22T05:17:37;97662.69;;;7.98;100.00
59831;BME280;45711;50.108;13.712;2022-10-22T05:20:03;97666.94;;;7.99;100.00
59831;BME280;45711;50.108;13.712;2022-10-22T05:22:29;97680.81;;;8.06;100.00
59831;BME280;45711;50.108;13.712;2022-10-22T05:24:57;97680.00;;;7.90;100.00
59831;BME280;45711;50.108;13.712;2022-10-22T05:27:23;97669.88;;;7.87;100.00
59831;BME280;45711;50.108;13.712;2022-10-22T05:29:51;97665.38;;;7.93;100.00
59831;BME280;45711;50.108;13.712;2022-10-22T05:32:16;97669.63;;;7.89;100.00
59831;BME280;45711;50.108;13.712;2022-10-22T05:34:42;97660.00;;;7.88;100.00
59831;BME280;45711;50.108;13.712;2022-10-22T05:37:14;97660.03;;;8.03;100.00
59831;BME280;45711;50.108;13.712;2022-10-22T05:39:40;97665.63;;;8.12;100.00
59831;BME280;45711;50.108;13.712;2022-10-22T05:42:07;97667.22;;;8.07;100.00
59831;BME280;45711;50.108;13.712;2022-10-22T05:44:33;97662.41;;;8.10;100.00
59831;BME280;45711;50.108;13.712;2022-10-22T05:47:02;97658.97;;;8.14;100.00
59831;BME280;45711;50.108;13.712;2022-10-22T05:49:28;97666.69;;;8.16;100.00
59831;BME280;45711;50.108;13.712;2022-10-22T05:51:54;97658.38;;;8.22;99.84
59831;BME280;45711;50.108;13.712;2022-10-22T05:54:20;97665.06;;;8.25;100.00
59831;BME280;45711;50.108;13.712;2022-10-22T05:56:48;97664.25;;;8.29;99.50
59831;BME280;45711;50.108;13.712;2022-10-22T05:59:13;97670.41;;;8.20;100.00
59831;BME280;45711;50.108;13.712;2022-10-22T06:01:39;97670.94;;;8.17;100.00
59831;BME280;45711;50.108;13.712;2022-10-22T06:04:12;97661.59;;;8.09;100.00
59831;BME280;45711;50.108;13.712;2022-10-22T06:06:41;97660.28;;;8.12;100.00
59831;BME280;45711;50.108;13.712;2022-10-22T06:09:16;97660.53;;;8.15;100.00
59831;BME280;45711;50.108;13.712;2022-10-22T06:11:44;97668.00;;;8.18;100.00
59831;BME280;45711;50.108;13.712;2022-10-22T06:14:27;97660.00;;;8.23;100.00
59831;BME280;45711;50.108;13.712;2022-10-22T06:17:02;97673.34;;;8.23;100.00
59831;BME280;45711;50.108;13.712;2022-10-22T06:19:29;97687.16;;;8.30;100.00
59831;BME280;45711;50.108;13.712;2022-10-22T06:21:55;97702.66;;;8.39;100.00
59831;BME280;45711;50.108;13.712;2022-10-22T06:24:21;97714.91;;;8.40;100.00
59831;BME280;45711;50.108;13.712;2022-10-22T06:26:48;97723.19;;;8.43;100.00
59831;BME280;45711;50.108;13.712;2022-10-22T06:29:31;97730.41;;;8.38;100.00
59831;BME280;45711;50.108;13.712;2022-10-22T06:31:58;97724.78;;;8.29;100.00
59831;BME280;45711;50.108;13.712;2022-10-22T06:34:26;97722.91;;;8.35;100.00
59831;BME280;45711;50.108;13.712;2022-10-22T06:36:57;97726.13;;;8.42;100.00
59831;BME280;45711;50.108;13.712;2022-10-22T06:39:25;97724.78;;;8.44;100.00
59831;BME280;45711;50.108;13.712;2022-10-22T06:41:50;97722.91;;;8.35;100.00
59831;BME280;45711;50.108;13.712;2022-10-22T06:44:20;97726.41;;;8.40;100.00
59831;BME280;45711;50.108;13.712;2022-10-22T06:46:48;97726.13;;;8.42;100.00
59831;BME280;45711;50.108;13.712;2022-10-22T06:49:18;97737.31;;;8.54;100.00
59831;BME280;45711;50.108;13.712;2022-10-22T06:51:44;97738.91;;;8.50;100.00
59831;BME280;45711;50.108;13.712;2022-10-22T06:54:15;97747.16;;;8.48;100.00
59831;BME280;45711;50.108;13.712;2022-10-22T06:56:43;97754.91;;;8.55;100.00
59831;BME280;45711;50.108;13.712;2022-10-22T06:59:11;97760.75;;;8.57;100.00
59831;BME280;45711;50.108;13.712;2022-10-22T07:01:43;97769.03;;;8.55;100.00
59831;BME280;45711;50.108;13.712;2022-10-22T07:04:16;97763.19;;;8.53;100.00
59831;BME280;45711;50.108;13.712;2022-10-22T07:06:46;97752.25;;;8.55;100.00
59831;BME280;45711;50.108;13.712;2022-10-22T07:09:14;97753.56;;;8.57;100.00
59831;BME280;45711;50.108;13.712;2022-10-22T07:11:42;97756.50;;;8.56;100.00
59831;BME280;45711;50.108;13.712;2022-10-22T07:14:10;97757.28;;;8.62;100.00
59831;BME280;45711;50.108;13.712;2022-10-22T07:16:36;97766.63;;;8.69;100.00
59831;BME280;45711;50.108;13.712;2022-10-22T07:19:08;97774.09;;;8.77;100.00
59831;BME280;45711;50.108;13.712;2022-10-22T07:21:34;97767.66;;;8.78;100.00
59831;BME280;45711;50.108;13.712;2022-10-22T07:24:19;97770.91;;;8.75;100.00
59831;BME280;45711;50.108;13.712;2022-10-22T07:26:46;97776.19;;;8.86;100.00
59831;BME280;45711;50.108;13.712;2022-10-22T07:29:12;97771.94;;;8.90;100.00
59831;BME280;45711;50.108;13.712;2022-10-22T07:31:44;97760.97;;;8.91;100.00
59831;BME280;45711;50.108;13.712;2022-10-22T07:34:14;97768.97;;;9.01;100.00
59831;BME280;45711;50.108;13.712;2022-10-22T07:36:50;97774.53;;;9.15;100.00
59831;BME280;45711;50.108;13.712;2022-10-22T07:39:25;97772.69;;;9.05;100.00
59831;BME280;45711;50.108;13.712;2022-10-22T07:41:58;97786.78;;;9.16;100.00
59831;BME280;45711;50.108;13.712;2022-10-22T07:45:14;97789.97;;;9.18;100.00
59831;BME280;45711;50.108;13.712;2022-10-22T07:47:30;97788.13;;;9.14;100.00
59831;BME280;45711;50.108;13.712;2022-10-22T07:49:56;97790.53;;;9.15;100.00
59831;BME280;45711;50.108;13.712;2022-10-22T07:52:28;97797.97;;;9.28;99.14
59831;BME280;45711;50.108;13.712;2022-10-22T07:55:51;97798.00;;;9.13;100.00
59831;BME280;45711;50.108;13.712;2022-10-22T08:01:09;97807.63;;;9.19;100.00
59831;BME280;45711;50.108;13.712;2022-10-22T08:03:34;97808.66;;;9.28;100.00
59831;BME280;45711;50.108;13.712;2022-10-22T08:06:02;97802.53;;;9.28;100.00
59831;BME280;45711;50.108;13.712;2022-10-22T08:08:48;97796.13;;;9.24;100.00
59831;BME280;45711;50.108;13.712;2022-10-22T08:11:30;97809.97;;;9.31;100.00
59831;BME280;45711;50.108;13.712;2022-10-22T08:14:05;97809.72;;;9.32;100.00
59831;BME280;45711;50.108;13.712;2022-10-22T08:16:35;97812.66;;;9.36;100.00
59831;BME280;45711;50.108;13.712;2022-10-22T08:19:15;97813.94;;;9.44;100.00
59831;BME280;45711;50.108;13.712;2022-10-22T08:21:43;97808.84;;;9.47;100.00
59831;BME280;45711;50.108;13.712;2022-10-22T08:25:22;97807.50;;;9.50;100.00
59831;BME280;45711;50.108;13.712;2022-10-22T08:27:20;97812.81;;;9.60;100.00
59831;BME280;45711;50.108;13.712;2022-10-22T08:30:12;97811.22;;;9.59;100.00
59831;BME280;45711;50.108;13.712;2022-10-22T08:32:54;97818.13;;;9.65;100.00
59831;BME280;45711;50.108;13.712;2022-10-22T08:35:29;97809.53;;;9.73;100.00
59831;BME280;45711;50.108;13.712;2022-10-22T08:38:02;97806.28;;;9.81;100.00
59831;BME280;45711;50.108;13.712;2022-10-22T08:40:33;97807.31;;;9.91;100.00
59831;BME280;45711;50.108;13.712;2022-10-22T08:43:32;97806.75;;;9.94;99.80
59831;BME280;45711;50.108;13.712;2022-10-22T08:46:17;97807.25;;;9.96;100.00
59831;BME280;45711;50.108;13.712;2022-10-22T08:49:00;97785.97;;;9.86;100.00
59831;BME280;45711;50.108;13.712;2022-10-22T08:51:30;97789.94;;;9.93;97.03
59831;BME280;45711;50.108;13.712;2022-10-22T08:54:07;97799.16;;;10.11;99.11
59831;BME280;45711;50.108;13.712;2022-10-22T08:56:37;97803.38;;;10.17;100.00
59831;BME280;45711;50.108;13.712;2022-10-22T08:59:20;97800.22;;;10.15;100.00
59831;BME280;45711;50.108;13.712;2022-10-22T09:01:50;97796.50;;;10.11;100.00
59831;BME280;45711;50.108;13.712;2022-10-22T09:04:26;97813.03;;;10.13;100.00
59831;BME280;45711;50.108;13.712;2022-10-22T09:14:08;97813.19;;;10.37;100.00
59831;BME280;45711;50.108;13.712;2022-10-22T09:16:48;97818.34;;;10.23;93.99
59831;BME280;45711;50.108;13.712;2022-10-22T09:19:23;97818.97;;;10.49;100.00
59831;BME280;45711;50.108;13.712;2022-10-22T09:21:59;97816.81;;;10.51;100.00
59831;BME280;45711;50.108;13.712;2022-10-22T09:24:34;97814.97;;;10.47;100.00
59831;BME280;45711;50.108;13.712;2022-10-22T09:27:07;97818.66;;;10.56;100.00
59831;BME280;45711;50.108;13.712;2022-10-22T09:29:36;97817.19;;;10.69;100.00
59831;BME280;45711;50.108;13.712;2022-10-22T09:32:03;97817.16;;;10.45;93.61
59831;BME280;45711;50.108;13.712;2022-10-22T09:34:36;97814.38;;;10.55;92.78
59831;BME280;45711;50.108;13.712;2022-10-22T09:37:08;97824.44;;;10.68;92.96
59831;BME280;45711;50.108;13.712;2022-10-22T09:39:53;97807.19;;;10.79;89.24
59831;BME280;45711;50.108;13.712;2022-10-22T09:53:09;97815.13;;;11.43;93.17
59831;BME280;45711;50.108;13.712;2022-10-22T09:56:14;97818.72;;;11.33;90.20
59831;BME280;45711;50.108;13.712;2022-10-22T10:31:09;97853.19;;;12.96;99.29
59831;BME280;45711;50.108;13.712;2022-10-22T10:33:53;97851.38;;;12.58;96.78
59831;BME280;45711;50.108;13.712;2022-10-22T11:35:16;97791.69;;;12.80;99.70
